Time;durP1;ratioP1;P1;durP2;ratioP2;P2;SDS_P1;SDS_P2;PMS_P1;PMS_P2;Temp;Humidity;BMP_temperature;BMP_pressure;BME280_temperature;BME280_humidity;BME280_pressure;Samples;Min_cycle;Max_cycle;Signal;HPM_P1;HPM_P2
2021/12/19 00:01:34;;;;;;;16.92;8.32;;;;;;;;;;5013685;28;20081;-73
2021/12/19 00:09:14;;;;;;;17.65;8.63;;;;;;;;;;5013724;28;20145;-73
2021/12/19 00:11:40;;;;;;;17.65;7.97;;;;;;;;;;5013158;28;20124;-73
2021/12/19 00:14:06;;;;;;;16.70;8.00;;;;;;;;;;5013894;28;20046;-74
2021/12/19 00:16:32;;;;;;;18.05;8.85;;;;;;;;;;5013472;28;20125;-74
2021/12/19 00:18:59;;;;;;;15.35;8.20;;;;;;;;;;5012476;28;20064;-74
2021/12/19 00:21:28;;;;;;;14.73;7.38;;;;;;;;;;5032935;22;20041;-65
2021/12/19 00:23:54;;;;;;;16.23;7.45;;;;;;;;;;5029929;28;20096;-64
2021/12/19 00:26:20;;;;;;;15.18;6.60;;;;;;;;;;5031797;28;20165;-64
2021/12/19 00:28:47;;;;;;;14.85;6.82;;;;;;;;;;5031148;28;20042;-64
2021/12/19 00:31:13;;;;;;;11.07;6.03;;;;;;;;;;5030380;28;20439;-65
2021/12/19 00:33:40;;;;;;;15.77;6.20;;;;;;;;;;5032871;28;20045;-64
2021/12/19 00:36:07;;;;;;;10.75;6.05;;;;;;;;;;5032423;28;20167;-64
2021/12/19 00:38:33;;;;;;;10.52;6.13;;;;;;;;;;5033391;28;20037;-64
2021/12/19 00:41:00;;;;;;;15.20;6.38;;;;;;;;;;5031328;28;20041;-64
2021/12/19 00:43:47;;;;;;;11.18;5.60;;;;;;;;;;5032084;28;20048;-64
2021/12/19 00:46:15;;;;;;;13.25;6.30;;;;;;;;;;5032894;28;20081;-64
2021/12/19 00:48:48;;;;;;;13.65;6.00;;;;;;;;;;5032365;28;20042;-64
2021/12/19 00:51:16;;;;;;;13.32;6.60;;;;;;;;;;5024083;28;20048;-65
2021/12/19 00:53:43;;;;;;;11.70;5.72;;;;;;;;;;5016809;28;20065;-64
2021/12/19 00:56:09;;;;;;;13.45;6.22;;;;;;;;;;5032171;28;20124;-64
2021/12/19 00:58:35;;;;;;;14.07;5.90;;;;;;;;;;5032518;28;20611;-64
2021/12/19 01:01:01;;;;;;;14.68;6.40;;;;;;;;;;5032573;28;20069;-64
2021/12/19 01:03:27;;;;;;;15.30;6.78;;;;;;;;;;5031609;28;20128;-64
2021/12/19 01:05:53;;;;;;;13.50;6.25;;;;;;;;;;5032121;28;20156;-64
2021/12/19 01:08:19;;;;;;;11.85;6.07;;;;;;;;;;5032266;28;20049;-64
2021/12/19 01:10:47;;;;;;;16.98;6.38;;;;;;;;;;5030480;28;20038;-64
2021/12/19 01:13:13;;;;;;;13.38;5.93;;;;;;;;;;5032720;28;20099;-64
2021/12/19 01:15:39;;;;;;;15.45;6.93;;;;;;;;;;5031099;28;20052;-64
2021/12/19 01:18:06;;;;;;;17.38;7.28;;;;;;;;;;5032428;28;20043;-65
2021/12/19 01:20:32;;;;;;;14.25;6.55;;;;;;;;;;5031715;28;20410;-64
2021/12/19 01:22:58;;;;;;;14.23;7.15;;;;;;;;;;5032186;28;20399;-64
2021/12/19 01:25:24;;;;;;;15.23;7.30;;;;;;;;;;5031949;28;20037;-65
2021/12/19 01:27:50;;;;;;;18.50;7.40;;;;;;;;;;5030634;28;20041;-64
2021/12/19 01:30:16;;;;;;;15.95;7.40;;;;;;;;;;5032488;28;20030;-64
2021/12/19 01:32:43;;;;;;;16.00;6.60;;;;;;;;;;5032260;28;20044;-64
2021/12/19 01:35:10;;;;;;;12.77;7.10;;;;;;;;;;5031985;28;20045;-64
2021/12/19 01:37:36;;;;;;;16.77;7.75;;;;;;;;;;5031527;28;20513;-64
2021/12/19 01:40:04;;;;;;;16.33;7.15;;;;;;;;;;5029940;28;20787;-64
2021/12/19 01:42:31;;;;;;;18.25;8.18;;;;;;;;;;5029796;28;20068;-64
2021/12/19 01:44:58;;;;;;;16.25;7.22;;;;;;;;;;5032335;28;20046;-64
2021/12/19 01:47:24;;;;;;;15.43;7.30;;;;;;;;;;5031792;28;20128;-65
2021/12/19 01:49:50;;;;;;;14.15;7.35;;;;;;;;;;5030157;28;20088;-64
2021/12/19 01:52:16;;;;;;;14.10;7.32;;;;;;;;;;5029336;28;20091;-64
2021/12/19 01:54:42;;;;;;;13.05;5.90;;;;;;;;;;5033677;28;20473;-64
2021/12/19 01:57:08;;;;;;;11.68;5.32;;;;;;;;;;5036349;28;20042;-64
2021/12/19 01:59:34;;;;;;;8.27;4.45;;;;;;;;;;5033400;28;20589;-64
2021/12/19 02:02:00;;;;;;;7.38;3.75;;;;;;;;;;5031499;28;20380;-64
2021/12/19 02:04:30;;;;;;;5.03;2.80;;;;;;;;;;5031413;28;20049;-64
2021/12/19 02:06:56;;;;;;;4.97;2.22;;;;;;;;;;5028310;28;20073;-64
2021/12/19 02:09:22;;;;;;;5.28;2.05;;;;;;;;;;5024817;28;20041;-64
2021/12/19 02:11:48;;;;;;;5.38;2.00;;;;;;;;;;5027953;28;20041;-65
2021/12/19 02:14:14;;;;;;;5.13;2.63;;;;;;;;;;5026918;28;20038;-64
2021/12/19 02:16:41;;;;;;;4.97;2.60;;;;;;;;;;5026455;28;20038;-64
2021/12/19 02:19:07;;;;;;;4.80;2.40;;;;;;;;;;5024184;28;20077;-64
2021/12/19 02:21:34;;;;;;;4.97;2.42;;;;;;;;;;5030081;28;20042;-64
2021/12/19 02:24:00;;;;;;;5.07;2.35;;;;;;;;;;5030545;28;20037;-64
2021/12/19 02:26:26;;;;;;;7.10;2.58;;;;;;;;;;5029791;28;20149;-64
2021/12/19 02:28:52;;;;;;;4.75;2.03;;;;;;;;;;5030622;28;20061;-65
2021/12/19 02:31:20;;;;;;;5.28;2.03;;;;;;;;;;5028148;28;20044;-64
2021/12/19 02:33:59;;;;;;;4.32;1.90;;;;;;;;;;5031213;28;20086;-64
2021/12/19 02:49:50;;;;;;;1.00;0.80;;;;;;;;;;5028890;28;20132;-64
2021/12/19 02:52:19;;;;;;;3.35;1.20;;;;;;;;;;5028665;28;20121;-64
2021/12/19 02:54:45;;;;;;;1.42;0.90;;;;;;;;;;5029813;28;20422;-65
2021/12/19 02:57:11;;;;;;;1.20;0.90;;;;;;;;;;5031682;28;20034;-64
2021/12/19 02:59:37;;;;;;;2.90;1.00;;;;;;;;;;5029757;28;20095;-64
2021/12/19 03:02:04;;;;;;;2.88;1.67;;;;;;;;;;5026472;28;20036;-64
2021/12/19 03:04:30;;;;;;;5.55;2.00;;;;;;;;;;5030287;28;20038;-64
2021/12/19 03:06:56;;;;;;;2.28;1.35;;;;;;;;;;5030018;28;20041;-64
2021/12/19 03:09:42;;;;;;;3.67;1.50;;;;;;;;;;5030409;28;20076;-64
2021/12/19 03:12:38;;;;;;;2.20;1.25;;;;;;;;;;5031137;28;20042;-64
2021/12/19 03:18:00;;;;;;;1.67;0.90;;;;;;;;;;5019811;28;20459;-65
2021/12/19 03:20:30;;;;;;;1.65;0.90;;;;;;;;;;5030715;28;20042;-64
2021/12/19 03:22:58;;;;;;;3.03;1.25;;;;;;;;;;5030060;28;20037;-64
2021/12/19 03:25:24;;;;;;;2.03;1.17;;;;;;;;;;5031028;28;20049;-64
2021/12/19 03:27:50;;;;;;;3.35;1.20;;;;;;;;;;5029718;28;20144;-64
2021/12/19 03:30:17;;;;;;;2.22;1.00;;;;;;;;;;5033420;28;20026;-64
2021/12/19 03:32:43;;;;;;;2.83;1.13;;;;;;;;;;5034315;28;20037;-64
2021/12/19 03:35:10;;;;;;;2.13;1.00;;;;;;;;;;5034267;28;20038;-65
2021/12/19 03:37:36;;;;;;;2.45;1.10;;;;;;;;;;5033953;28;20526;-64
2021/12/19 03:40:09;;;;;;;3.17;1.13;;;;;;;;;;5034137;28;20037;-64
2021/12/19 03:42:41;;;;;;;1.65;0.98;;;;;;;;;;5033733;28;20081;-64
2021/12/19 03:45:08;;;;;;;2.95;1.13;;;;;;;;;;5034072;28;20087;-64
2021/12/19 03:47:34;;;;;;;1.40;0.90;;;;;;;;;;5034223;28;20045;-64
2021/12/19 03:50:02;;;;;;;2.03;1.20;;;;;;;;;;5029352;28;20044;-64
2021/12/19 03:52:28;;;;;;;1.75;1.15;;;;;;;;;;5032793;28;20077;-65
2021/12/19 03:54:54;;;;;;;2.35;1.17;;;;;;;;;;5031821;28;20422;-65
2021/12/19 03:57:20;;;;;;;2.78;1.17;;;;;;;;;;5033839;28;20045;-65
2021/12/19 03:59:48;;;;;;;3.53;1.45;;;;;;;;;;5033768;28;20091;-64
2021/12/19 04:02:16;;;;;;;2.70;1.23;;;;;;;;;;5033292;28;20041;-65
2021/12/19 04:04:42;;;;;;;2.95;1.40;;;;;;;;;;5033854;28;20589;-64
2021/12/19 04:07:08;;;;;;;2.60;1.33;;;;;;;;;;5033111;28;20029;-65
2021/12/19 04:09:34;;;;;;;3.38;1.30;;;;;;;;;;5031674;28;20065;-65
2021/12/19 04:12:00;;;;;;;3.45;1.60;;;;;;;;;;5033426;28;20037;-65
2021/12/19 04:14:26;;;;;;;2.97;1.20;;;;;;;;;;5031182;28;20048;-65
2021/12/19 04:16:52;;;;;;;1.83;1.38;;;;;;;;;;5025532;28;20041;-65
2021/12/19 04:19:20;;;;;;;2.35;1.30;;;;;;;;;;5033810;28;20042;-65
2021/12/19 04:21:46;;;;;;;3.97;1.27;;;;;;;;;;5032645;28;20041;-65
2021/12/19 04:24:12;;;;;;;2.40;1.20;;;;;;;;;;5031834;28;20049;-64
2021/12/19 04:26:38;;;;;;;1.42;0.80;;;;;;;;;;5031785;28;20044;-64
2021/12/19 04:29:04;;;;;;;3.22;0.90;;;;;;;;;;5032005;28;20084;-64
2021/12/19 04:31:30;;;;;;;2.35;0.90;;;;;;;;;;5033477;28;20465;-64
2021/12/19 04:33:57;;;;;;;1.42;0.90;;;;;;;;;;5032009;28;20041;-64
2021/12/19 04:36:28;;;;;;;2.92;1.00;;;;;;;;;;5032746;28;20042;-64
2021/12/19 04:44:34;;;;;;;1.08;0.80;;;;;;;;;;5013685;28;20053;-65
2021/12/19 04:57:46;;;;;;;2.13;0.98;;;;;;;;;;5015930;28;20152;-65
2021/12/19 05:00:17;;;;;;;4.15;1.20;;;;;;;;;;5030705;28;20126;-64
2021/12/19 05:03:01;;;;;;;2.05;1.10;;;;;;;;;;5032290;28;20515;-65
2021/12/19 05:16:13;;;;;;;2.72;1.20;;;;;;;;;;5028466;28;20132;-65
2021/12/19 05:18:40;;;;;;;2.22;1.10;;;;;;;;;;5031581;28;20048;-65
2021/12/19 05:21:21;;;;;;;1.98;1.15;;;;;;;;;;5031997;28;20049;-64
2021/12/19 05:26:22;;;;;;;2.80;1.10;;;;;;;;;;5025623;28;20437;-64
2021/12/19 05:28:48;;;;;;;2.22;1.20;;;;;;;;;;5029951;28;20040;-64
2021/12/19 05:31:15;;;;;;;3.30;1.52;;;;;;;;;;5030018;28;20040;-65
2021/12/19 05:33:41;;;;;;;3.65;1.58;;;;;;;;;;5030522;28;20421;-64
2021/12/19 05:44:15;;;;;;;2.63;1.50;;;;;;;;;;5032409;28;20449;-64
2021/12/19 05:46:42;;;;;;;3.90;1.30;;;;;;;;;;5030432;28;20396;-64
2021/12/19 05:49:09;;;;;;;4.57;1.52;;;;;;;;;;5032012;28;20044;-65
2021/12/19 05:51:35;;;;;;;4.20;1.67;;;;;;;;;;5029845;28;20048;-64
2021/12/19 05:54:01;;;;;;;3.83;1.60;;;;;;;;;;5030696;28;20041;-64
2021/12/19 05:56:28;;;;;;;4.40;1.77;;;;;;;;;;5031325;28;20048;-64
2021/12/19 05:58:55;;;;;;;4.20;1.50;;;;;;;;;;5029694;28;20071;-65
2021/12/19 06:01:21;;;;;;;5.68;2.10;;;;;;;;;;5030190;28;20069;-64
2021/12/19 06:03:47;;;;;;;3.97;1.88;;;;;;;;;;5031601;28;20076;-64
2021/12/19 06:06:13;;;;;;;4.10;2.17;;;;;;;;;;5032032;28;20048;-64
2021/12/19 06:08:39;;;;;;;9.05;2.67;;;;;;;;;;5031240;28;20041;-65
2021/12/19 06:11:04;;;;;;;5.00;2.65;;;;;;;;;;5029722;28;20045;-64
2021/12/19 06:13:30;;;;;;;5.82;2.55;;;;;;;;;;5031655;28;20041;-64
2021/12/19 06:15:57;;;;;;;7.10;2.65;;;;;;;;;;5028594;28;20119;-65
2021/12/19 06:18:24;;;;;;;7.57;2.85;;;;;;;;;;5031065;28;20041;-65
2021/12/19 06:23:22;;;;;;;9.50;2.50;;;;;;;;;;5028577;28;20052;-74
2021/12/19 06:25:48;;;;;;;6.07;2.60;;;;;;;;;;5031396;28;20406;-74
2021/12/19 06:28:18;;;;;;;10.90;3.47;;;;;;;;;;5031543;28;20104;-74
2021/12/19 06:30:44;;;;;;;7.75;4.22;;;;;;;;;;5031364;28;20087;-74
2021/12/19 06:33:11;;;;;;;9.65;3.90;;;;;;;;;;5010424;28;20038;-74
2021/12/19 06:35:37;;;;;;;13.43;4.40;;;;;;;;;;5010870;28;20038;-74
2021/12/19 06:38:03;;;;;;;10.55;4.38;;;;;;;;;;5011732;28;20052;-74
2021/12/19 06:40:29;;;;;;;11.45;4.45;;;;;;;;;;5009765;28;20033;-74
2021/12/19 06:42:55;;;;;;;14.93;4.85;;;;;;;;;;5007198;28;20034;-74
2021/12/19 06:45:21;;;;;;;16.42;6.00;;;;;;;;;;5011073;28;20045;-74
2021/12/19 06:47:48;;;;;;;16.08;6.00;;;;;;;;;;5011026;28;20048;-74
2021/12/19 06:50:15;;;;;;;21.00;7.15;;;;;;;;;;5009860;28;20038;-72
2021/12/19 06:52:41;;;;;;;22.33;6.75;;;;;;;;;;5011626;28;20080;-73
2021/12/19 06:55:08;;;;;;;20.05;7.40;;;;;;;;;;5011279;28;20046;-73
2021/12/19 06:57:34;;;;;;;21.05;7.55;;;;;;;;;;5011500;28;20034;-73
2021/12/19 07:00:00;;;;;;;18.67;7.55;;;;;;;;;;5011561;28;20034;-73
2021/12/19 07:02:26;;;;;;;23.25;7.57;;;;;;;;;;5010978;28;20176;-73
2021/12/19 07:04:52;;;;;;;23.85;7.68;;;;;;;;;;5013927;28;20057;-73
2021/12/19 07:07:19;;;;;;;21.65;6.82;;;;;;;;;;5012483;28;20038;-74
2021/12/19 07:09:45;;;;;;;18.33;7.95;;;;;;;;;;5014594;28;20049;-72
2021/12/19 07:12:11;;;;;;;23.08;7.85;;;;;;;;;;5012573;28;20041;-73
2021/12/19 07:14:37;;;;;;;16.73;7.30;;;;;;;;;;5014603;28;20033;-73
2021/12/19 07:17:03;;;;;;;17.00;7.20;;;;;;;;;;5014087;28;20111;-72
2021/12/19 07:19:29;;;;;;;18.00;6.80;;;;;;;;;;5014259;28;20079;-72
2021/12/19 07:21:55;;;;;;;20.95;7.25;;;;;;;;;;5012153;28;20543;-72
2021/12/19 07:24:21;;;;;;;21.73;7.18;;;;;;;;;;5014423;28;20048;-73
2021/12/19 07:26:47;;;;;;;16.33;6.32;;;;;;;;;;5011747;28;20044;-73
2021/12/19 07:29:13;;;;;;;14.32;6.07;;;;;;;;;;5012166;28;20034;-72
2021/12/19 07:31:39;;;;;;;20.75;6.45;;;;;;;;;;5012504;28;20403;-72
2021/12/19 07:34:06;;;;;;;18.05;6.80;;;;;;;;;;5001006;28;20049;-72
2021/12/19 07:36:40;;;;;;;22.17;6.55;;;;;;;;;;5008545;28;20068;-72
2021/12/19 07:39:11;;;;;;;16.50;6.30;;;;;;;;;;5010421;28;20389;-72
2021/12/19 07:41:38;;;;;;;19.17;6.28;;;;;;;;;;5010433;28;20064;-73
2021/12/19 07:44:04;;;;;;;18.05;6.68;;;;;;;;;;5012980;28;20034;-73
2021/12/19 07:46:30;;;;;;;20.05;6.57;;;;;;;;;;5008431;28;20500;-73
2021/12/19 07:48:56;;;;;;;21.02;6.22;;;;;;;;;;4995140;28;20077;-72
2021/12/19 07:51:22;;;;;;;25.20;5.93;;;;;;;;;;5007757;28;20042;-72
2021/12/19 07:53:48;;;;;;;17.10;5.85;;;;;;;;;;5012743;28;20077;-72
2021/12/19 07:56:14;;;;;;;12.23;5.35;;;;;;;;;;5019262;28;20037;-74
2021/12/19 07:58:39;;;;;;;20.60;5.80;;;;;;;;;;5013192;28;20084;-73
2021/12/19 08:01:05;;;;;;;19.90;6.30;;;;;;;;;;5011563;28;20046;-73
2021/12/19 08:03:31;;;;;;;16.73;6.13;;;;;;;;;;5013249;28;20045;-72
2021/12/19 08:05:57;;;;;;;20.35;5.88;;;;;;;;;;5013733;28;20041;-74
2021/12/19 08:08:27;;;;;;;15.63;6.15;;;;;;;;;;5014053;28;20041;-74
2021/12/19 08:13:39;;;;;;;18.77;5.97;;;;;;;;;;5010271;28;20053;-74
2021/12/19 08:16:05;;;;;;;14.52;5.07;;;;;;;;;;5009575;28;20034;-74
2021/12/19 08:18:31;;;;;;;14.80;5.22;;;;;;;;;;5008529;28;20420;-74
2021/12/19 08:20:57;;;;;;;14.45;5.72;;;;;;;;;;5009812;28;20183;-72
2021/12/19 08:23:23;;;;;;;16.90;5.25;;;;;;;;;;5012967;28;20057;-73
2021/12/19 08:25:49;;;;;;;18.55;5.53;;;;;;;;;;5013053;28;20092;-75
2021/12/19 08:28:15;;;;;;;14.38;5.10;;;;;;;;;;5012643;28;20045;-73
2021/12/19 08:30:41;;;;;;;13.18;5.07;;;;;;;;;;5013735;28;20407;-73
2021/12/19 08:33:07;;;;;;;15.27;4.57;;;;;;;;;;5013659;28;20045;-72
2021/12/19 08:35:33;;;;;;;15.20;4.35;;;;;;;;;;5013485;28;20075;-73
2021/12/19 08:37:59;;;;;;;14.77;4.93;;;;;;;;;;5013838;28;20129;-73
2021/12/19 08:40:27;;;;;;;15.52;4.05;;;;;;;;;;5013511;28;20049;-73
2021/12/19 08:42:53;;;;;;;16.17;4.57;;;;;;;;;;5012976;28;20415;-73
2021/12/19 08:45:20;;;;;;;14.75;5.00;;;;;;;;;;5013878;28;20038;-73
2021/12/19 08:47:46;;;;;;;10.27;4.38;;;;;;;;;;5013720;28;20406;-73
2021/12/19 08:50:12;;;;;;;14.45;5.00;;;;;;;;;;5013244;28;20065;-73
2021/12/19 08:52:38;;;;;;;20.40;5.43;;;;;;;;;;5013149;28;20073;-73
2021/12/19 08:55:05;;;;;;;15.50;4.85;;;;;;;;;;5013073;28;20049;-73
2021/12/19 08:57:31;;;;;;;13.57;5.00;;;;;;;;;;5013240;28;20038;-73
2021/12/19 08:59:57;;;;;;;13.02;5.03;;;;;;;;;;5013275;28;20046;-73
2021/12/19 09:02:23;;;;;;;14.75;4.63;;;;;;;;;;5012517;28;20049;-73
2021/12/19 09:04:49;;;;;;;15.93;4.72;;;;;;;;;;5013344;28;20077;-73
2021/12/19 09:07:17;;;;;;;15.35;4.78;;;;;;;;;;5013255;28;20074;-73
2021/12/19 09:09:44;;;;;;;13.40;4.70;;;;;;;;;;5012983;28;20038;-73
2021/12/19 09:12:10;;;;;;;20.30;4.60;;;;;;;;;;5012380;28;20038;-73
2021/12/19 09:14:36;;;;;;;8.98;4.13;;;;;;;;;;5013119;28;20042;-73
2021/12/19 09:17:02;;;;;;;12.98;5.32;;;;;;;;;;5013176;28;20107;-73
2021/12/19 09:19:29;;;;;;;12.48;4.55;;;;;;;;;;5013131;28;20073;-73
2021/12/19 09:21:54;;;;;;;9.57;4.32;;;;;;;;;;5012523;28;20482;-73
2021/12/19 09:24:21;;;;;;;11.43;3.95;;;;;;;;;;4994997;28;20125;-73
2021/12/19 09:26:47;;;;;;;14.27;4.30;;;;;;;;;;5012485;28;20044;-73
2021/12/19 09:29:13;;;;;;;15.70;5.05;;;;;;;;;;5012755;28;20148;-73
2021/12/19 09:31:39;;;;;;;14.70;4.47;;;;;;;;;;5012531;28;20117;-73
2021/12/19 09:34:07;;;;;;;15.50;3.97;;;;;;;;;;5012663;28;20038;-73
2021/12/19 09:36:33;;;;;;;12.15;3.85;;;;;;;;;;5012632;28;20567;-73
2021/12/19 09:38:59;;;;;;;11.50;3.75;;;;;;;;;;5012447;28;20073;-73
2021/12/19 09:41:32;;;;;;;15.65;4.28;;;;;;;;;;5012284;28;20119;-73
2021/12/19 09:43:58;;;;;;;13.75;4.03;;;;;;;;;;5012276;28;20129;-73
2021/12/19 09:46:28;;;;;;;12.52;3.47;;;;;;;;;;5012544;28;20476;-73
2021/12/19 09:48:55;;;;;;;11.75;3.78;;;;;;;;;;5012553;28;20038;-73
2021/12/19 09:51:21;;;;;;;12.25;3.53;;;;;;;;;;5011878;28;20080;-73
2021/12/19 09:53:47;;;;;;;12.52;3.83;;;;;;;;;;5012412;28;20479;-73
2021/12/19 09:56:13;;;;;;;9.68;2.97;;;;;;;;;;5012373;28;20058;-73
2021/12/19 09:58:40;;;;;;;14.57;4.00;;;;;;;;;;5011999;28;20038;-73
2021/12/19 10:01:07;;;;;;;14.10;3.03;;;;;;;;;;5012068;28;20046;-73
2021/12/19 10:03:35;;;;;;;9.85;3.10;;;;;;;;;;5012089;28;20111;-73
2021/12/19 10:06:16;;;;;;;14.15;3.63;;;;;;;;;;5012105;28;20049;-73
2021/12/19 10:08:42;;;;;;;15.15;3.50;;;;;;;;;;5012396;28;20038;-73
2021/12/19 10:11:43;;;;;;;9.85;3.22;;;;;;;;;;5011224;28;20033;-72
2021/12/19 10:14:23;;;;;;;10.70;3.10;;;;;;;;;;5012158;28;20046;-73
2021/12/19 10:16:49;;;;;;;11.43;2.93;;;;;;;;;;5012375;28;20037;-73
2021/12/19 10:19:15;;;;;;;10.35;3.15;;;;;;;;;;5004542;28;20296;-73
2021/12/19 10:21:41;;;;;;;10.88;3.20;;;;;;;;;;5011723;28;20136;-73
2021/12/19 10:24:09;;;;;;;8.45;2.80;;;;;;;;;;5011828;28;20065;-73
2021/12/19 10:26:44;;;;;;;10.80;3.40;;;;;;;;;;5011492;28;20042;-73
2021/12/19 10:29:10;;;;;;;13.48;3.72;;;;;;;;;;5012022;28;20066;-73
2021/12/19 10:31:36;;;;;;;13.07;3.28;;;;;;;;;;5011696;28;20120;-73
2021/12/19 10:34:18;;;;;;;9.15;3.10;;;;;;;;;;5012111;28;20045;-73
2021/12/19 10:36:44;;;;;;;15.82;3.63;;;;;;;;;;5011891;28;20467;-73
2021/12/19 10:39:13;;;;;;;11.80;3.53;;;;;;;;;;5013255;28;20100;-73
2021/12/19 10:41:42;;;;;;;8.57;2.90;;;;;;;;;;5015624;28;20049;-73
2021/12/19 10:45:29;;;;;;;15.82;2.92;;;;;;;;;;5015676;28;20050;-73
2021/12/19 10:46:54;;;;;;;10.38;3.22;;;;;;;;;;5015682;28;20042;-73
2021/12/19 10:49:22;;;;;;;9.05;2.70;;;;;;;;;;5015709;28;20077;-73
2021/12/19 10:51:52;;;;;;;9.57;3.20;;;;;;;;;;5015076;28;20499;-73
2021/12/19 10:54:18;;;;;;;10.30;3.55;;;;;;;;;;5015215;28;20045;-73
2021/12/19 10:56:44;;;;;;;11.93;3.15;;;;;;;;;;5015616;28;20395;-73
2021/12/19 10:59:12;;;;;;;11.13;3.08;;;;;;;;;;5015559;28;20092;-73
2021/12/19 11:01:41;;;;;;;15.13;3.67;;;;;;;;;;5015210;28;20069;-73
2021/12/19 11:04:09;;;;;;;11.73;2.95;;;;;;;;;;5015381;28;20081;-73
2021/12/19 11:06:52;;;;;;;9.98;2.90;;;;;;;;;;5015288;28;20085;-73
2021/12/19 11:09:19;;;;;;;12.68;3.40;;;;;;;;;;5014532;28;20034;-73
2021/12/19 11:11:52;;;;;;;9.00;2.90;;;;;;;;;;5014765;28;20104;-72
2021/12/19 11:14:20;;;;;;;16.17;3.65;;;;;;;;;;5015347;28;20399;-73
2021/12/19 11:16:46;;;;;;;14.70;3.20;;;;;;;;;;5015107;28;20136;-73
2021/12/19 11:19:12;;;;;;;10.88;3.50;;;;;;;;;;5015402;28;20099;-73
2021/12/19 11:21:38;;;;;;;8.93;2.83;;;;;;;;;;5013403;28;20490;-73
2021/12/19 11:24:06;;;;;;;9.10;3.00;;;;;;;;;;5014246;28;20546;-72
2021/12/19 11:26:32;;;;;;;13.77;3.50;;;;;;;;;;5015148;28;20045;-73
2021/12/19 11:28:58;;;;;;;11.90;3.38;;;;;;;;;;5014516;28;20048;-73
2021/12/19 11:31:30;;;;;;;13.20;3.47;;;;;;;;;;5014385;28;20038;-73
2021/12/19 11:34:01;;;;;;;10.57;3.58;;;;;;;;;;5015016;28;20045;-73
2021/12/19 11:36:32;;;;;;;12.43;3.42;;;;;;;;;;5015001;28;20056;-73
2021/12/19 11:38:59;;;;;;;12.38;3.45;;;;;;;;;;5014789;28;20053;-73
2021/12/19 11:41:25;;;;;;;10.43;3.05;;;;;;;;;;5013708;28;20454;-73
2021/12/19 11:43:54;;;;;;;7.65;2.33;;;;;;;;;;5014274;28;20042;-73
2021/12/19 11:46:41;;;;;;;12.40;3.13;;;;;;;;;;5014705;28;20556;-73
2021/12/19 11:49:11;;;;;;;12.15;2.42;;;;;;;;;;5014692;28;20045;-73
2021/12/19 11:51:37;;;;;;;11.45;3.00;;;;;;;;;;5014741;28;20100;-73
2021/12/19 11:54:32;;;;;;;13.73;3.63;;;;;;;;;;5013928;28;20042;-73
2021/12/19 11:57:09;;;;;;;12.77;3.58;;;;;;;;;;4999652;28;20133;-73
2021/12/19 11:59:36;;;;;;;11.98;3.75;;;;;;;;;;5011889;28;20124;-73
2021/12/19 12:02:20;;;;;;;12.52;3.05;;;;;;;;;;5010429;28;20111;-73
2021/12/19 12:05:06;;;;;;;11.35;3.20;;;;;;;;;;5013101;28;20046;-73
2021/12/19 12:07:52;;;;;;;13.75;3.55;;;;;;;;;;5014033;28;20042;-73
2021/12/19 12:10:20;;;;;;;13.18;2.50;;;;;;;;;;5014183;28;20095;-73
2021/12/19 12:12:50;;;;;;;8.88;2.67;;;;;;;;;;5013855;28;20069;-73
2021/12/19 12:15:16;;;;;;;13.05;2.78;;;;;;;;;;5013507;28;20042;-73
2021/12/19 12:17:50;;;;;;;15.27;3.75;;;;;;;;;;5014049;28;20030;-73
2021/12/19 12:20:20;;;;;;;11.57;3.50;;;;;;;;;;5014125;28;20526;-73
2021/12/19 12:23:00;;;;;;;11.43;3.00;;;;;;;;;;5028209;22;20385;-64
2021/12/19 12:25:30;;;;;;;13.35;3.38;;;;;;;;;;5012535;28;20048;-64
2021/12/19 12:28:03;;;;;;;14.23;3.20;;;;;;;;;;5012612;28;20046;-64
2021/12/19 12:30:30;;;;;;;13.65;3.20;;;;;;;;;;5011550;28;20053;-64
2021/12/19 12:33:00;;;;;;;15.68;2.85;;;;;;;;;;5011299;28;20122;-64
2021/12/19 12:35:28;;;;;;;12.75;2.70;;;;;;;;;;5013184;28;20133;-64
2021/12/19 12:37:55;;;;;;;14.82;2.85;;;;;;;;;;5013626;28;20076;-64
2021/12/19 12:40:31;;;;;;;12.10;3.05;;;;;;;;;;5013670;28;20057;-64
2021/12/19 12:43:08;;;;;;;15.25;3.67;;;;;;;;;;5013370;28;20056;-64
2021/12/19 12:45:47;;;;;;;11.02;3.08;;;;;;;;;;5013797;28;20614;-64
2021/12/19 12:48:25;;;;;;;12.52;3.08;;;;;;;;;;4996475;28;20038;-64
2021/12/19 12:50:51;;;;;;;14.02;2.97;;;;;;;;;;5005539;28;20424;-64
2021/12/19 12:53:29;;;;;;;17.92;2.92;;;;;;;;;;5008383;28;20030;-63
2021/12/19 12:56:11;;;;;;;13.90;2.78;;;;;;;;;;4992819;28;20077;-63
2021/12/19 12:58:42;;;;;;;16.80;3.72;;;;;;;;;;4993836;28;20054;-64
2021/12/19 13:01:15;;;;;;;11.18;3.22;;;;;;;;;;5004592;28;20096;-64
2021/12/19 13:04:00;;;;;;;16.02;3.35;;;;;;;;;;5013256;28;20041;-63
2021/12/19 13:06:46;;;;;;;14.05;3.00;;;;;;;;;;5013349;28;20041;-63
2021/12/19 13:09:15;;;;;;;15.20;2.72;;;;;;;;;;5013057;28;20125;-64
2021/12/19 13:11:41;;;;;;;13.88;2.85;;;;;;;;;;5013054;28;20100;-63
2021/12/19 13:14:15;;;;;;;12.68;3.58;;;;;;;;;;5008946;28;20042;-63
2021/12/19 13:16:45;;;;;;;17.75;3.17;;;;;;;;;;5002820;28;20045;-64
2021/12/19 13:19:30;;;;;;;18.65;3.17;;;;;;;;;;5013145;28;20041;-63
2021/12/19 13:21:56;;;;;;;13.27;3.08;;;;;;;;;;5011187;28;20084;-64
2021/12/19 13:24:24;;;;;;;16.73;3.42;;;;;;;;;;5012944;28;20053;-64
2021/12/19 13:27:02;;;;;;;17.42;3.08;;;;;;;;;;4997047;28;20061;-63
2021/12/19 13:29:29;;;;;;;12.52;3.08;;;;;;;;;;4999834;28;20073;-63
2021/12/19 13:31:55;;;;;;;17.08;2.72;;;;;;;;;;5012553;28;20053;-63
2021/12/19 13:34:21;;;;;;;12.82;2.90;;;;;;;;;;5011742;28;20046;-63
2021/12/19 13:37:05;;;;;;;11.88;2.72;;;;;;;;;;5012565;28;20503;-64
2021/12/19 13:39:31;;;;;;;14.18;3.60;;;;;;;;;;5012863;28;20042;-64
2021/12/19 13:42:06;;;;;;;21.20;3.40;;;;;;;;;;5012300;28;20037;-63
2021/12/19 13:44:32;;;;;;;14.95;3.10;;;;;;;;;;5010941;28;20049;-63
2021/12/19 13:46:58;;;;;;;20.08;3.35;;;;;;;;;;5012487;28;20109;-63
2021/12/19 13:49:24;;;;;;;20.48;3.80;;;;;;;;;;5012751;28;20080;-64
2021/12/19 13:51:53;;;;;;;14.98;3.20;;;;;;;;;;5012317;28;20049;-64
2021/12/19 13:54:27;;;;;;;13.82;2.67;;;;;;;;;;5012458;28;20042;-64
2021/12/19 13:56:52;;;;;;;13.40;3.08;;;;;;;;;;5011584;28;20045;-63
2021/12/19 13:59:20;;;;;;;15.45;3.25;;;;;;;;;;4995004;28;20034;-64
2021/12/19 14:01:46;;;;;;;15.20;2.70;;;;;;;;;;4992467;28;20042;-63
2021/12/19 14:04:19;;;;;;;22.58;3.20;;;;;;;;;;4999501;28;20074;-63
2021/12/19 14:06:46;;;;;;;15.13;3.28;;;;;;;;;;5012232;28;20041;-63
2021/12/19 14:09:17;;;;;;;18.33;3.03;;;;;;;;;;5012244;28;20499;-63
2021/12/19 14:11:44;;;;;;;21.63;4.40;;;;;;;;;;5000722;28;20034;-64
2021/12/19 14:14:23;;;;;;;16.88;3.17;;;;;;;;;;5011154;28;20046;-64
2021/12/19 14:16:56;;;;;;;23.75;3.17;;;;;;;;;;5012260;28;20053;-63
2021/12/19 14:19:23;;;;;;;17.83;3.30;;;;;;;;;;5012144;28;20511;-64
2021/12/19 14:22:04;;;;;;;17.00;3.40;;;;;;;;;;5011684;28;20064;-63
2021/12/19 14:24:32;;;;;;;14.65;3.33;;;;;;;;;;5007280;28;20042;-64
2021/12/19 14:27:04;;;;;;;18.60;2.97;;;;;;;;;;5008530;28;20060;-63
2021/12/19 14:29:30;;;;;;;13.48;3.35;;;;;;;;;;4999971;28;20042;-63
2021/12/19 14:32:08;;;;;;;14.98;3.47;;;;;;;;;;4991112;28;20053;-63
2021/12/19 14:34:34;;;;;;;18.27;3.40;;;;;;;;;;4992220;28;20038;-63
2021/12/19 14:37:12;;;;;;;20.33;5.22;;;;;;;;;;4992421;28;20587;-63
2021/12/19 14:39:38;;;;;;;20.60;3.75;;;;;;;;;;4992167;28;20114;-64
2021/12/19 14:42:09;;;;;;;13.60;3.08;;;;;;;;;;4992062;28;20134;-64
2021/12/19 14:44:35;;;;;;;19.27;3.30;;;;;;;;;;4992215;28;20042;-64
2021/12/19 14:47:01;;;;;;;11.43;2.80;;;;;;;;;;4992137;28;20038;-63
2021/12/19 14:49:36;;;;;;;14.50;3.08;;;;;;;;;;4992364;28;20423;-63
2021/12/19 14:52:02;;;;;;;13.13;2.55;;;;;;;;;;4992980;28;20043;-64
2021/12/19 14:54:28;;;;;;;20.55;4.35;;;;;;;;;;4992246;28;20042;-63
2021/12/19 14:56:57;;;;;;;13.63;3.28;;;;;;;;;;4992222;28;20164;-63
2021/12/19 14:59:27;;;;;;;17.42;3.63;;;;;;;;;;4992111;28;20050;-64
2021/12/19 15:01:53;;;;;;;14.63;3.05;;;;;;;;;;4990670;28;20064;-63
2021/12/19 15:04:20;;;;;;;16.33;3.40;;;;;;;;;;5004625;28;20487;-63
2021/12/19 15:06:47;;;;;;;25.25;4.18;;;;;;;;;;5011827;28;20049;-64
2021/12/19 15:09:15;;;;;;;12.80;2.80;;;;;;;;;;5011809;28;20463;-63
2021/12/19 15:11:41;;;;;;;17.20;2.90;;;;;;;;;;5011460;28;20117;-64
2021/12/19 15:14:08;;;;;;;15.23;3.17;;;;;;;;;;5011428;28;20046;-63
2021/12/19 15:16:34;;;;;;;11.60;2.70;;;;;;;;;;5011871;28;20061;-63
2021/12/19 15:19:01;;;;;;;14.65;2.28;;;;;;;;;;5009536;28;20042;-63
2021/12/19 15:21:28;;;;;;;10.70;2.47;;;;;;;;;;5011236;28;20078;-64
2021/12/19 15:23:54;;;;;;;15.18;3.45;;;;;;;;;;5011370;28;20049;-64
2021/12/19 15:26:20;;;;;;;16.52;2.90;;;;;;;;;;5015163;28;20124;-64
2021/12/19 15:28:47;;;;;;;7.10;1.95;;;;;;;;;;5014998;28;20042;-63
2021/12/19 15:31:15;;;;;;;10.30;1.63;;;;;;;;;;5014787;28;20041;-64
2021/12/19 15:33:41;;;;;;;6.20;1.30;;;;;;;;;;4997565;28;20125;-64
2021/12/19 15:36:07;;;;;;;3.42;0.95;;;;;;;;;;4995408;28;20092;-63
2021/12/19 15:38:35;;;;;;;6.47;1.45;;;;;;;;;;4995397;28;20127;-63
2021/12/19 15:41:01;;;;;;;5.25;1.13;;;;;;;;;;4995310;28;20042;-63
2021/12/19 15:46:04;;;;;;;4.90;1.05;;;;;;;;;;5436822;22;20045;-66
2021/12/19 15:48:30;;;;;;;7.13;1.10;;;;;;;;;;5052689;28;20073;-66